Itapejara d'Oeste, Brazil
Current Conditions -  °F | °C
As of 10:00 PM on Thursday 27 Nov 2014 (Local Time) from SBCA Reporting Station
Few Clouds Few Clouds  
Wind Chill: 75°   Ceiling: Unl
Heat Index: 75°   Visibility: 6mi
Dew Point: 68°   Wind: 6mph
Humidity: 78%   Direction: 160°SSE
Pressure: 29.94"   Gusts: NA
Location:  25.97°S, 52.82°W
Report Text: SBCA 280000Z 16005KT 9999 FEW025 24/20 Q1014
Loading
Personal Weather Stations






























Interactive Weather Map New forecast layout! Learn more

10-Day Weather Forecast

Advertisements
Track Severe Weather on mobile